This is the latest recevied weather packets stored in our database for station/object IU1CYJ. If no packets are shown the sender has not sent any weather packets the latest 10 day(s).
| Time | Temp. | Humidity | Pressure | Rain* | Wind** | Luminosity | Snow |
|---|---|---|---|---|---|---|---|
| 1777397467 | 19.44° C | 68% | 1014.2 hPa | 0 mm | - | - | - |
| 1777396555 | 20° C | 64% | 1014.2 hPa | 0 mm | - | - | - |
| 1777395657 | 20° C | 64% | 1014.2 hPa | 0 mm | - | - | - |
| 1777391156 | 21.11° C | 61% | 1014.3 hPa | 0 mm | - | - | - |
| 1777390257 | 21.11° C | 60% | 1014.3 hPa | 0 mm | - | - | - |
| 1777389356 | 21.11° C | 59% | 1014.3 hPa | 0 mm | - | - | - |
| 1777377658 | 21.67° C | 54% | 1015.9 hPa | 0 mm | - | - | - |
| 1777373161 | 20.56° C | 57% | 1016.3 hPa | 0 mm | - | - | - |
| 1777372254 | 20° C | 58% | 1016.4 hPa | 0 mm | - | - | - |
| 1777371357 | 20° C | 58% | 1016.5 hPa | 0 mm | - | - | - |
| 1777363253 | 17.78° C | 72% | 1016.5 hPa | 0 mm | - | - | - |
| 1777353357 | 15.56° C | 79% | 1015.6 hPa | 0 mm | - | - | - |
| 1777345253 | 15.56° C | 79% | 1014.8 hPa | 0 mm | - | - | - |
| 1777343461 | 16.11° C | 78% | 1015 hPa | 0 mm | - | - | - |
| 1777342558 | 15.56° C | 78% | 1015 hPa | 0 mm | - | - | - |
| 1777338055 | 16.67° C | 75% | 1015.1 hPa | 0 mm | - | - | - |
| 1777333556 | 18.33° C | 65% | 1015.3 hPa | 0 mm | - | - | - |
| 1777332652 | 18.89° C | 63% | 1015.3 hPa | 0 mm | - | - | - |
| 1777331760 | 18.89° C | 63% | 1015.3 hPa | 0 mm | - | - | - |
| 1777327257 | 19.44° C | 59% | 1015.3 hPa | 0 mm | - | - | - |
| 1777309267 | 24.44° C | 43% | 1014.8 hPa | 0 mm | - | - | - |
| 1777308371 | 24.44° C | 44% | 1014.7 hPa | 0 mm | - | - | - |
| 1777307459 | 24.44° C | 41% | 1014.9 hPa | 0 mm | - | - | - |
| 1777302057 | 24.44° C | 46% | 1015.2 hPa | 0 mm | - | - | - |
| 1777300267 | 24.44° C | 49% | 1015.5 hPa | 0 mm | - | - | - |
* Rain latest hour (hover to see other rain measurements)
** Current wind speed in m/s (hover to see current wind gust speed)